createdAt,value
2018-05-26T00:01:29.190Z,15.55
2018-05-26T00:03:56.668Z,18.05
2018-05-26T00:06:24.916Z,19.27
2018-05-26T00:08:52.406Z,16.95
2018-05-26T00:11:20.658Z,16.30
2018-05-26T00:13:48.213Z,16.23
2018-05-26T00:16:15.687Z,16.15
2018-05-26T00:18:43.161Z,16.48
2018-05-26T00:21:11.381Z,15.98
2018-05-26T00:23:38.861Z,16.52
2018-05-26T00:26:06.357Z,16.95
2018-05-26T00:28:34.169Z,16.75
2018-05-26T00:31:01.645Z,20.15
2018-05-26T00:33:29.107Z,16.30
2018-05-26T00:35:56.608Z,19.52
2018-05-26T00:38:24.074Z,19.17
2018-05-26T00:40:51.599Z,19.75
2018-05-26T00:43:19.868Z,18.02
2018-05-26T00:45:48.118Z,19.87
2018-05-26T00:48:16.176Z,17.87
2018-05-26T00:50:43.686Z,18.62
2018-05-26T00:53:11.924Z,18.87
2018-05-26T00:55:39.388Z,20.37
2018-05-26T00:58:06.873Z,17.87
2018-05-26T01:00:35.104Z,19.25
2018-05-26T01:03:02.605Z,18.85
2018-05-26T01:05:30.850Z,18.62
2018-05-26T01:07:58.347Z,19.85
2018-05-26T01:10:25.810Z,18.12
2018-05-26T01:12:53.290Z,18.15
2018-05-26T01:15:20.761Z,21.70
2018-05-26T01:17:48.231Z,21.05
2018-05-26T01:20:15.706Z,18.67
2018-05-26T01:22:43.162Z,20.08
2018-05-26T01:25:10.671Z,21.08
2018-05-26T01:27:38.130Z,20.67
2018-05-26T01:30:05.774Z,18.60
2018-05-26T01:32:33.279Z,20.17
2018-05-26T01:35:01.773Z,21.70
2018-05-26T01:37:29.252Z,20.50
2018-05-26T01:39:57.478Z,19.40
2018-05-26T01:42:24.979Z,19.60
2018-05-26T01:44:53.231Z,19.60
2018-05-26T01:47:20.693Z,19.83
2018-05-26T01:49:48.167Z,19.67
2018-05-26T01:52:16.433Z,19.33
2018-05-26T01:54:43.927Z,18.95
2018-05-26T01:57:11.398Z,18.20
2018-05-26T01:59:38.897Z,20.25
2018-05-26T02:02:06.362Z,20.42
2018-05-26T02:04:33.832Z,18.90
2018-05-26T02:07:02.083Z,18.30
2018-05-26T02:09:29.561Z,16.95
2018-05-26T02:11:57.798Z,18.45
2018-05-26T02:14:25.269Z,17.10
2018-05-26T02:16:52.766Z,17.17
2018-05-26T02:19:20.997Z,17.92
2018-05-26T02:21:48.460Z,16.58
2018-05-26T02:24:15.964Z,18.23
2018-05-26T02:26:43.441Z,18.00
2018-05-26T02:29:10.911Z,17.05
2018-05-26T02:31:38.390Z,18.55
2018-05-26T02:34:05.876Z,17.45
2018-05-26T02:36:34.120Z,15.93
2018-05-26T02:39:01.625Z,17.25
2018-05-26T02:41:29.098Z,17.45
2018-05-26T02:43:56.621Z,17.10
2018-05-26T02:46:24.876Z,20.12
2018-05-26T02:48:52.380Z,16.50
2018-05-26T02:51:19.846Z,18.87
2018-05-26T02:53:47.349Z,15.85
2018-05-26T02:56:14.825Z,19.37
2018-05-26T02:58:43.066Z,17.23
2018-05-26T03:01:10.549Z,16.55
2018-05-26T03:03:38.016Z,17.25
2018-05-26T03:06:11.891Z,16.80
2018-05-26T03:08:44.961Z,16.40
2018-05-26T03:11:18.083Z,16.30
2018-05-26T03:13:51.213Z,15.50
2018-05-26T03:16:22.516Z,17.05
2018-05-26T03:18:50.024Z,15.55
2018-05-26T03:21:17.531Z,15.77
2018-05-26T03:23:45.065Z,15.38
2018-05-26T03:26:12.534Z,17.87
2018-05-26T03:28:40.000Z,18.50
2018-05-26T03:31:07.499Z,16.12
2018-05-26T03:33:35.753Z,14.55
2018-05-26T03:36:03.262Z,17.30
2018-05-26T03:38:30.766Z,17.35
2018-05-26T03:40:58.232Z,16.48
2018-05-26T03:43:26.851Z,14.95
2018-05-26T03:45:54.360Z,20.37
2018-05-26T03:48:21.847Z,15.70
2018-05-26T03:50:49.316Z,15.07
2018-05-26T03:53:16.797Z,14.90
2018-05-26T03:55:56.153Z,17.20
2018-05-26T03:58:35.470Z,14.40
2018-05-26T04:01:02.953Z,15.57
2018-05-26T04:03:30.425Z,14.45
2018-05-26T04:05:57.975Z,14.30
2018-05-26T04:08:25.471Z,23.30
2018-05-26T04:10:52.933Z,14.57
2018-05-26T04:13:20.394Z,15.02
2018-05-26T04:15:47.873Z,15.02
2018-05-26T04:18:15.369Z,14.18
2018-05-26T04:20:42.837Z,14.13
2018-05-26T04:23:11.079Z,13.70
2018-05-26T04:25:38.636Z,15.35
2018-05-26T04:28:06.061Z,15.23
2018-05-26T04:30:33.542Z,14.15
2018-05-26T04:33:01.039Z,13.40
2018-05-26T04:35:28.575Z,14.20
2018-05-26T04:37:56.008Z,16.58
2018-05-26T04:40:23.521Z,13.45
2018-05-26T04:42:51.770Z,14.15
2018-05-26T04:45:19.318Z,15.00
2018-05-26T04:47:46.796Z,14.07
2018-05-26T04:50:14.271Z,12.90
2018-05-26T04:52:42.515Z,13.73
2018-05-26T04:55:09.992Z,15.05
2018-05-26T04:57:38.238Z,15.57
2018-05-26T05:00:05.755Z,15.38
2018-05-26T05:02:33.227Z,13.18
2018-05-26T05:05:00.749Z,13.65
2018-05-26T05:07:28.977Z,13.25
2018-05-26T05:09:56.441Z,13.73
2018-05-26T05:12:23.918Z,13.18
2018-05-26T05:14:51.402Z,18.62
2018-05-26T05:17:18.886Z,13.88
2018-05-26T05:19:46.375Z,13.70
2018-05-26T05:22:14.017Z,14.95
2018-05-26T05:24:41.489Z,14.82
2018-05-26T05:27:09.055Z,15.48
2018-05-26T05:29:36.525Z,15.95
2018-05-26T05:32:03.994Z,15.43
2018-05-26T05:34:32.237Z,15.35
2018-05-26T05:36:59.719Z,18.27
2018-05-26T05:39:27.204Z,18.35
2018-05-26T05:41:55.434Z,14.00
2018-05-26T05:44:22.925Z,14.73
2018-05-26T05:46:51.145Z,17.50
2018-05-26T05:49:18.690Z,14.55
2018-05-26T05:51:46.178Z,13.88
2018-05-26T05:54:13.756Z,15.05
2018-05-26T05:56:41.478Z,14.55
2018-05-26T05:59:08.977Z,15.68
2018-05-26T06:01:36.792Z,18.33
2018-05-26T06:04:04.322Z,17.35
2018-05-26T06:06:32.594Z,15.98
2018-05-26T06:09:00.072Z,14.98
2018-05-26T06:11:27.547Z,15.90
2018-05-26T06:13:55.028Z,16.67
2018-05-26T06:16:22.503Z,14.82
2018-05-26T06:18:49.988Z,15.10
2018-05-26T06:21:18.247Z,18.10
2018-05-26T06:23:45.749Z,16.87
2018-05-26T06:26:13.225Z,15.75
2018-05-26T06:28:40.719Z,17.17
2018-05-26T06:31:08.218Z,18.37
2018-05-26T06:33:35.715Z,18.40
2018-05-26T06:36:03.185Z,19.17
2018-05-26T06:38:30.687Z,17.23
2018-05-26T06:40:58.159Z,15.38
2018-05-26T06:43:25.641Z,16.70
2018-05-26T06:45:53.127Z,15.40
2018-05-26T06:48:20.654Z,16.45
2018-05-26T06:50:48.157Z,17.40
2018-05-26T06:53:16.422Z,16.65
2018-05-26T06:55:44.682Z,17.90
2018-05-26T06:58:12.188Z,16.85
2018-05-26T07:00:39.653Z,15.75
2018-05-26T07:03:07.148Z,17.10
2018-05-26T07:05:34.625Z,14.93
2018-05-26T07:08:02.891Z,18.27
2018-05-26T07:10:30.357Z,20.65
2018-05-26T07:12:58.641Z,18.08
2018-05-26T07:15:26.874Z,18.35
2018-05-26T07:17:54.371Z,14.98
2018-05-26T07:20:22.649Z,20.00
2018-05-26T07:22:50.915Z,14.13
2018-05-26T07:25:18.403Z,16.23
2018-05-26T07:27:45.966Z,18.27
2018-05-26T07:30:14.205Z,17.55
2018-05-26T07:32:42.506Z,15.93
2018-05-26T07:35:09.981Z,15.40
2018-05-26T07:37:37.449Z,14.32
2018-05-26T07:40:04.935Z,17.45
2018-05-26T07:42:32.434Z,21.77
2018-05-26T07:44:59.921Z,15.15
2018-05-26T07:47:27.432Z,16.10
2018-05-26T07:49:54.901Z,15.23
2018-05-26T07:52:23.188Z,18.05
2018-05-26T07:54:50.661Z,16.05
2018-05-26T07:57:18.164Z,15.23
2018-05-26T07:59:45.632Z,15.60
2018-05-26T08:02:13.918Z,15.80
2018-05-26T08:04:42.146Z,15.05
2018-05-26T08:07:09.623Z,14.20
2018-05-26T08:09:37.107Z,19.20
2018-05-26T08:12:05.348Z,16.65
2018-05-26T08:14:32.825Z,12.23
2018-05-26T08:17:00.334Z,16.02
2018-05-26T08:19:27.836Z,11.07
2018-05-26T08:21:55.332Z,13.38
2018-05-26T08:24:22.791Z,11.80
2018-05-26T08:26:50.818Z,13.93
2018-05-26T08:29:18.277Z,12.43
2018-05-26T08:31:45.763Z,13.70
2018-05-26T08:34:14.025Z,13.02
2018-05-26T08:36:41.482Z,11.80
2018-05-26T08:39:08.979Z,12.82
2018-05-26T08:41:36.455Z,15.60
2018-05-26T08:44:03.943Z,13.10
2018-05-26T08:46:32.206Z,13.15
2018-05-26T08:48:59.672Z,12.95
2018-05-26T08:51:27.384Z,12.82
2018-05-26T08:53:55.762Z,14.27
2018-05-26T08:56:23.259Z,11.02
2018-05-26T08:58:50.755Z,13.05
2018-05-26T09:01:19.033Z,13.35
2018-05-26T09:03:47.294Z,17.30
2018-05-26T09:06:14.811Z,10.63
2018-05-26T09:08:42.288Z,11.50
2018-05-26T09:11:09.837Z,15.32
2018-05-26T09:13:37.309Z,12.43
2018-05-26T09:16:04.778Z,13.32
2018-05-26T09:18:32.277Z,10.60
2018-05-26T09:20:59.806Z,12.77
2018-05-26T09:23:28.050Z,17.62
2018-05-26T09:25:55.549Z,12.35
2018-05-26T09:28:23.782Z,14.75
2018-05-26T09:30:51.250Z,10.05
2018-05-26T09:33:18.719Z,8.73
2018-05-26T09:35:46.206Z,9.18
2018-05-26T09:38:13.666Z,10.20
2018-05-26T09:40:41.145Z,8.73
2018-05-26T09:43:08.642Z,9.20
2018-05-26T09:45:36.151Z,9.52
2018-05-26T09:48:03.650Z,11.40
2018-05-26T09:50:31.127Z,9.95
2018-05-26T09:52:58.605Z,8.70
2018-05-26T09:55:26.080Z,7.80
2018-05-26T09:57:53.563Z,7.18
2018-05-26T10:00:21.020Z,8.95
2018-05-26T10:02:48.520Z,11.82
2018-05-26T10:05:16.761Z,8.43
2018-05-26T10:07:44.218Z,8.48
2018-05-26T10:10:11.713Z,7.10
2018-05-26T10:12:39.953Z,9.88
2018-05-26T10:15:08.321Z,7.22
2018-05-26T10:17:35.787Z,6.03
2018-05-26T10:20:03.286Z,4.97
2018-05-26T10:22:31.545Z,10.70
2018-05-26T10:24:59.023Z,6.07
2018-05-26T10:27:27.271Z,6.15
2018-05-26T10:29:54.746Z,9.10
2018-05-26T10:32:22.981Z,4.30
2018-05-26T10:34:50.447Z,4.12
2018-05-26T10:37:17.923Z,10.80
2018-05-26T10:39:46.151Z,6.65
2018-05-26T10:42:13.654Z,6.28
2018-05-26T10:44:41.121Z,5.87
2018-05-26T10:47:09.366Z,6.95
2018-05-26T10:49:36.866Z,5.35
2018-05-26T10:52:05.105Z,7.03
2018-05-26T10:54:32.594Z,6.80
2018-05-26T10:57:00.850Z,6.72
2018-05-26T10:59:28.334Z,7.75
2018-05-26T11:01:55.806Z,6.60
2018-05-26T11:04:23.399Z,10.63
2018-05-26T11:06:50.902Z,3.97
2018-05-26T11:09:19.151Z,6.43
2018-05-26T11:11:46.633Z,7.82
2018-05-26T11:14:14.908Z,9.48
2018-05-26T11:16:43.183Z,4.80
2018-05-26T11:19:11.479Z,8.10
2018-05-26T11:21:38.933Z,7.72
2018-05-26T11:24:06.650Z,7.07
2018-05-26T11:26:33.936Z,8.43
2018-05-26T11:29:02.158Z,4.18
2018-05-26T11:31:29.622Z,8.35
2018-05-26T11:33:57.125Z,4.07
2018-05-26T11:36:25.406Z,5.20
2018-05-26T11:38:53.658Z,7.80
2018-05-26T11:41:22.066Z,6.62
2018-05-26T11:43:49.548Z,7.55
2018-05-26T11:46:17.026Z,6.32
2018-05-26T11:48:44.492Z,6.12
2018-05-26T11:51:11.986Z,8.10
2018-05-26T11:53:40.230Z,11.20
2018-05-26T11:56:07.703Z,5.03
2018-05-26T11:58:35.168Z,6.22
2018-05-26T12:01:03.421Z,7.05
2018-05-26T12:03:30.914Z,7.85
2018-05-26T12:05:59.238Z,6.60
2018-05-26T12:08:26.714Z,4.95
2018-05-26T12:10:54.215Z,7.43
2018-05-26T12:13:22.504Z,10.88
2018-05-26T12:15:49.974Z,14.35
2018-05-26T12:18:17.440Z,4.87
2018-05-26T12:20:44.925Z,4.87
2018-05-26T12:23:12.385Z,4.93
2018-05-26T12:25:39.905Z,10.18
2018-05-26T12:28:07.378Z,7.05
2018-05-26T12:30:34.846Z,5.90
2018-05-26T12:33:02.349Z,5.85
2018-05-26T12:35:30.417Z,5.20
2018-05-26T12:37:57.889Z,9.73
2018-05-26T12:40:25.358Z,7.47
2018-05-26T12:42:52.838Z,6.22
2018-05-26T12:45:20.310Z,7.68
2018-05-26T12:47:47.774Z,5.18
2018-05-26T12:50:15.234Z,5.93
2018-05-26T12:52:43.479Z,4.72
2018-05-26T12:55:10.957Z,8.90
2018-05-26T12:57:38.419Z,6.22
2018-05-26T13:00:05.985Z,4.85
2018-05-26T13:02:34.242Z,6.22
2018-05-26T13:05:01.699Z,5.50
2018-05-26T13:07:29.162Z,6.15
2018-05-26T13:09:56.644Z,5.75
2018-05-26T13:12:24.890Z,3.90
2018-05-26T13:14:52.405Z,6.53
2018-05-26T13:17:19.862Z,9.00
2018-05-26T13:19:47.350Z,4.55
2018-05-26T13:22:14.799Z,4.53
2018-05-26T13:24:42.291Z,6.50
2018-05-26T13:27:09.811Z,4.68
2018-05-26T13:29:37.278Z,7.95
2018-05-26T13:32:04.757Z,9.40
2018-05-26T13:34:32.230Z,6.03
2018-05-26T13:37:00.457Z,6.20
2018-05-26T13:39:27.935Z,6.57
2018-05-26T13:41:55.403Z,5.65
2018-05-26T13:44:22.887Z,9.45
2018-05-26T13:46:51.112Z,7.40
2018-05-26T13:49:18.685Z,4.47
2018-05-26T13:51:46.050Z,5.55
2018-05-26T13:54:13.662Z,5.82
2018-05-26T13:56:41.159Z,5.40
2018-05-26T13:59:08.611Z,6.18
2018-05-26T14:01:36.096Z,7.07
2018-05-26T14:04:04.351Z,6.43
2018-05-26T14:06:32.902Z,6.93
2018-05-26T14:09:00.390Z,8.85
2018-05-26T14:11:27.870Z,3.72
2018-05-26T14:13:56.101Z,9.13
2018-05-26T14:16:23.586Z,5.10
2018-05-26T14:18:51.048Z,5.65
2018-05-26T14:21:18.507Z,7.05
2018-05-26T14:23:45.982Z,5.20
2018-05-26T14:26:14.215Z,6.20
2018-05-26T14:28:41.698Z,8.73
2018-05-26T14:31:09.166Z,5.72
2018-05-26T14:33:37.377Z,3.67
2018-05-26T14:36:04.876Z,3.20
2018-05-26T14:38:32.346Z,7.35
2018-05-26T14:41:00.581Z,8.63
2018-05-26T14:43:28.078Z,7.07
2018-05-26T14:45:55.533Z,4.22
2018-05-26T14:48:23.802Z,5.07
2018-05-26T14:50:51.332Z,6.25
2018-05-26T14:53:18.801Z,4.40
2018-05-26T14:55:46.279Z,5.70
2018-05-26T14:58:13.777Z,7.05
2018-05-26T15:00:41.987Z,4.68
2018-05-26T15:03:09.437Z,4.45
2018-05-26T15:05:37.683Z,4.55
2018-05-26T15:08:05.156Z,9.05
2018-05-26T15:10:32.656Z,7.12
2018-05-26T15:13:00.171Z,7.07
2018-05-26T15:15:27.718Z,4.53
2018-05-26T15:17:55.221Z,6.05
2018-05-26T15:20:22.690Z,10.77
2018-05-26T15:22:50.168Z,4.97
2018-05-26T15:25:17.677Z,10.90
2018-05-26T15:27:45.154Z,4.78
2018-05-26T15:30:12.622Z,5.25
2018-05-26T15:32:40.145Z,6.85
2018-05-26T15:35:07.613Z,6.90
2018-05-26T15:37:35.083Z,7.43
2018-05-26T15:40:02.551Z,4.85
2018-05-26T15:42:30.050Z,6.12
2018-05-26T15:44:57.547Z,4.37
2018-05-26T15:47:25.018Z,7.78
2018-05-26T15:49:52.636Z,7.53
2018-05-26T15:52:20.097Z,4.30
2018-05-26T15:54:47.561Z,4.95
2018-05-26T15:57:15.027Z,8.57
2018-05-26T15:59:42.520Z,7.05
2018-05-26T16:02:10.747Z,8.40
2018-05-26T16:04:38.265Z,7.00
2018-05-26T16:07:06.505Z,6.93
2018-05-26T16:09:33.993Z,4.07
2018-05-26T16:12:02.242Z,4.18
2018-05-26T16:14:29.702Z,6.35
2018-05-26T16:16:57.180Z,4.80
2018-05-26T16:19:25.450Z,5.28
2018-05-26T16:21:52.898Z,4.75
2018-05-26T16:24:20.374Z,5.10
2018-05-26T16:26:48.597Z,3.37
2018-05-26T16:29:16.061Z,4.93
2018-05-26T16:31:43.548Z,4.00
2018-05-26T16:34:11.044Z,7.53
2018-05-26T16:36:38.522Z,8.10
2018-05-26T16:39:05.995Z,5.68
2018-05-26T16:41:33.501Z,6.80
2018-05-26T16:44:01.006Z,6.57
2018-05-26T16:46:28.466Z,5.43
2018-05-26T16:48:55.920Z,5.32
2018-05-26T16:51:23.405Z,9.80
2018-05-26T16:53:50.875Z,6.82
2018-05-26T16:56:19.122Z,7.30
2018-05-26T16:58:46.621Z,5.07
2018-05-26T17:01:14.845Z,4.97
2018-05-26T17:03:42.301Z,4.03
2018-05-26T17:06:09.790Z,6.25
2018-05-26T17:08:37.284Z,13.07
2018-05-26T17:11:04.778Z,4.12
2018-05-26T17:13:32.273Z,3.87
2018-05-26T17:16:00.533Z,4.97
2018-05-26T17:18:28.007Z,9.30
2018-05-26T17:20:56.245Z,7.05
2018-05-26T17:23:23.794Z,5.07
2018-05-26T17:25:51.270Z,5.70
2018-05-26T17:28:18.750Z,5.87
2018-05-26T17:30:47.042Z,7.68
2018-05-26T17:33:15.278Z,4.30
2018-05-26T17:35:42.765Z,8.80
2018-05-26T17:38:11.001Z,6.90
2018-05-26T17:40:38.524Z,6.72
2018-05-26T17:43:05.998Z,4.55
2018-05-26T17:45:33.471Z,5.55
2018-05-26T17:48:00.943Z,7.80
2018-05-26T17:50:28.431Z,6.65
2018-05-26T17:52:56.672Z,5.95
2018-05-26T17:55:24.168Z,6.70
2018-05-26T17:57:51.637Z,3.95
2018-05-26T18:00:19.124Z,6.32
2018-05-26T18:02:46.586Z,6.18
2018-05-26T18:05:14.072Z,5.85
2018-05-26T18:07:41.542Z,5.50
2018-05-26T18:10:09.766Z,6.55
2018-05-26T18:12:37.254Z,7.05
2018-05-26T18:15:04.738Z,5.97
2018-05-26T18:17:32.972Z,6.28
2018-05-26T18:20:00.473Z,6.20
2018-05-26T18:22:28.712Z,6.20
2018-05-26T18:24:56.225Z,5.45
2018-05-26T18:27:23.695Z,7.72
2018-05-26T18:29:51.169Z,10.70
2018-05-26T18:32:18.656Z,6.22
2018-05-26T18:34:46.124Z,7.78
2018-05-26T18:37:14.384Z,7.47
2018-05-26T18:39:41.854Z,8.32
2018-05-26T18:42:09.330Z,9.00
2018-05-26T18:44:36.791Z,4.37
2018-05-26T18:47:04.250Z,5.65
2018-05-26T18:49:32.525Z,7.95
2018-05-26T18:52:00.006Z,6.90
2018-05-26T18:54:27.478Z,5.68
2018-05-26T18:56:54.961Z,9.25
2018-05-26T18:59:22.449Z,4.37
2018-05-26T19:01:49.918Z,7.97
2018-05-26T19:04:17.402Z,6.90
2018-05-26T19:06:44.880Z,6.05
2018-05-26T19:09:12.464Z,4.43
2018-05-26T19:11:40.738Z,6.12
2018-05-26T19:14:08.966Z,7.05
2018-05-26T19:16:36.759Z,8.55
2018-05-26T19:19:04.709Z,6.15
2018-05-26T19:21:32.179Z,7.22
2018-05-26T19:23:59.692Z,6.22
2018-05-26T19:26:27.985Z,9.23
2018-05-26T19:28:55.433Z,8.10
2018-05-26T19:31:22.920Z,10.75
2018-05-26T19:33:50.400Z,11.55
2018-05-26T19:36:17.878Z,6.87
2018-05-26T19:38:46.138Z,8.48
2018-05-26T19:41:13.609Z,4.95
2018-05-26T19:43:42.178Z,7.40
2018-05-26T19:46:10.437Z,7.78
2018-05-26T19:48:37.925Z,5.07
2018-05-26T19:51:06.146Z,7.20
2018-05-26T19:53:33.630Z,8.48
2018-05-26T19:56:01.098Z,6.25
2018-05-26T19:58:28.573Z,6.90
2018-05-26T20:00:56.819Z,6.25
2018-05-26T20:03:24.287Z,5.47
2018-05-26T20:05:51.773Z,5.37
2018-05-26T20:08:19.243Z,8.25
2018-05-26T20:10:46.754Z,8.02
2018-05-26T20:13:14.258Z,5.78
2018-05-26T20:15:41.726Z,4.35
2018-05-26T20:18:09.185Z,7.60
2018-05-26T20:20:36.686Z,8.57
2018-05-26T20:23:04.181Z,12.20
2018-05-26T20:25:31.649Z,9.15
2018-05-26T20:27:59.113Z,8.40
2018-05-26T20:30:26.597Z,7.70
2018-05-26T20:32:54.058Z,7.70
2018-05-26T20:35:21.570Z,6.25
2018-05-26T20:37:49.110Z,5.43
2018-05-26T20:40:16.530Z,8.55
2018-05-26T20:42:44.782Z,7.10
2018-05-26T20:45:12.254Z,8.77
2018-05-26T20:47:39.732Z,7.85
2018-05-26T20:50:07.242Z,6.90
2018-05-26T20:52:34.699Z,5.57
2018-05-26T20:55:02.191Z,7.50
2018-05-26T20:57:29.657Z,21.85
2018-05-26T20:59:57.145Z,7.50
2018-05-26T21:02:25.383Z,9.45
2018-05-26T21:04:52.894Z,7.32
2018-05-26T21:07:20.372Z,9.10
2018-05-26T21:09:47.850Z,7.03
2018-05-26T21:12:15.317Z,5.53
2018-05-26T21:14:42.779Z,7.15
2018-05-26T21:17:10.238Z,7.00
2018-05-26T21:19:37.712Z,5.50
2018-05-26T21:22:05.963Z,9.20
2018-05-26T21:24:33.425Z,8.18
2018-05-26T21:27:00.893Z,8.57
2018-05-26T21:29:28.369Z,7.07
2018-05-26T21:31:57.181Z,11.38
2018-05-26T21:34:24.646Z,8.05
2018-05-26T21:36:52.134Z,8.27
2018-05-26T21:39:19.598Z,9.48
2018-05-26T21:41:47.070Z,7.43
2018-05-26T21:44:14.543Z,6.00
2018-05-26T21:46:42.775Z,8.32
2018-05-26T21:49:10.233Z,7.15
2018-05-26T21:51:37.713Z,7.45
2018-05-26T21:54:05.196Z,9.25
2018-05-26T21:56:32.733Z,11.50
2018-05-26T21:59:01.014Z,12.30
2018-05-26T22:01:29.245Z,7.72
2018-05-26T22:03:56.758Z,15.18
2018-05-26T22:06:24.224Z,11.27
2018-05-26T22:08:51.681Z,5.30
2018-05-26T22:11:19.163Z,10.43
2018-05-26T22:13:46.690Z,10.15
2018-05-26T22:16:14.926Z,5.60
2018-05-26T22:18:42.420Z,10.40
2018-05-26T22:21:10.653Z,6.60
2018-05-26T22:23:38.154Z,7.80
2018-05-26T22:26:06.430Z,8.23
2018-05-26T22:28:34.711Z,10.10
2018-05-26T22:31:02.223Z,8.00
2018-05-26T22:33:29.722Z,7.37
2018-05-26T22:35:57.957Z,11.95
2018-05-26T22:38:25.434Z,6.70
2018-05-26T22:40:52.908Z,8.60
2018-05-26T22:43:21.157Z,8.45
2018-05-26T22:45:48.695Z,6.28
2018-05-26T22:48:16.601Z,7.53
2018-05-26T22:50:44.829Z,7.03
2018-05-26T22:53:12.314Z,6.00
2018-05-26T22:55:39.809Z,8.73
2018-05-26T22:58:07.294Z,7.07
2018-05-26T23:00:34.765Z,4.35
2018-05-26T23:03:02.238Z,10.13
2018-05-26T23:05:29.716Z,5.07
2018-05-26T23:07:57.218Z,8.57
2018-05-26T23:10:24.686Z,6.70
2018-05-26T23:12:52.149Z,4.50
2018-05-26T23:15:19.654Z,5.65
2018-05-26T23:17:47.900Z,4.95
2018-05-26T23:20:15.460Z,8.23
2018-05-26T23:22:43.686Z,4.90
2018-05-26T23:25:11.174Z,8.48
2018-05-26T23:27:38.639Z,6.55
2018-05-26T23:30:06.138Z,6.97
2018-05-26T23:32:34.382Z,5.22
2018-05-26T23:35:01.859Z,5.80
2018-05-26T23:37:29.350Z,8.93
2018-05-26T23:39:56.810Z,4.35
2018-05-26T23:42:24.383Z,6.00
2018-05-26T23:44:52.058Z,6.30
2018-05-26T23:47:19.557Z,4.62
2018-05-26T23:49:47.837Z,4.37
2018-05-26T23:52:16.128Z,4.40
2018-05-26T23:54:44.372Z,10.20
2018-05-26T23:57:11.869Z,8.40
2018-05-26T23:59:39.366Z,5.32
